Time;durP1;ratioP1;P1;durP2;ratioP2;P2;SDS_P1;SDS_P2;PMS_P1;PMS_P2;Temp;Humidity;BMP_temperature;BMP_pressure;BME280_temperature;BME280_humidity;BME280_pressure;Samples;Min_cycle;Max_cycle;Signal;HPM_P1;HPM_P2
2023/04/19 00:00:44;;;;;;;9.50;6.32;;;7.90;68.20;;;;;;5080282;28;20028;-47
2023/04/19 00:03:13;;;;;;;10.40;5.20;;;7.80;68.40;;;;;;5073094;28;20433;-51
2023/04/19 00:05:40;;;;;;;11.70;5.60;;;7.80;68.90;;;;;;5055787;28;20029;-45
2023/04/19 00:08:07;;;;;;;10.82;5.50;;;7.80;69.20;;;;;;5073790;28;20021;-47
2023/04/19 00:10:38;;;;;;;8.70;5.38;;;7.80;69.10;;;;;;5090186;28;20028;-45
2023/04/19 00:13:04;;;;;;;8.23;5.15;;;7.80;69.10;;;;;;5091285;28;20035;-47
2023/04/19 00:15:33;;;;;;;9.30;5.80;;;7.70;69.00;;;;;;5085916;28;20047;-46
2023/04/19 00:18:02;;;;;;;8.93;5.65;;;7.70;69.20;;;;;;5081431;28;20094;-48
2023/04/19 00:20:29;;;;;;;9.63;5.70;;;7.70;69.40;;;;;;5072928;28;20371;-46
2023/04/19 00:22:57;;;;;;;7.40;5.63;;;7.70;69.50;;;;;;5055343;28;20037;-45
2023/04/19 00:25:25;;;;;;;10.20;6.07;;;7.60;69.80;;;;;;5077820;28;20085;-46
2023/04/19 00:27:52;;;;;;;7.85;4.82;;;7.50;70.20;;;;;;5091782;28;20074;-46
2023/04/19 00:30:22;;;;;;;8.57;5.70;;;7.50;70.40;;;;;;5072754;28;20445;-48
2023/04/19 00:32:47;;;;;;;;;;;7.50;70.50;;;;;;5074443;28;20457;-45
2023/04/19 00:35:15;;;;;;;9.32;5.53;;;7.50;70.90;;;;;;5083210;28;19919;-46
2023/04/19 00:37:42;;;;;;;10.18;5.93;;;7.40;71.40;;;;;;5072101;28;20047;-47
2023/04/19 00:40:10;;;;;;;13.18;4.90;;;7.40;71.30;;;;;;5071917;28;20029;-45
2023/04/19 00:42:38;;;;;;;10.48;6.13;;;7.40;71.20;;;;;;5072201;28;20036;-46
2023/04/19 00:45:05;;;;;;;16.73;5.55;;;7.40;71.50;;;;;;5086711;28;20077;-47
2023/04/19 00:47:33;;;;;;;9.75;5.25;;;7.40;70.40;;;;;;5074889;28;20024;-48
2023/04/19 00:50:02;;;;;;;8.52;5.53;;;7.40;70.30;;;;;;5094998;28;20107;-46
2023/04/19 00:52:29;;;;;;;9.85;5.15;;;7.40;70.40;;;;;;5079133;28;20040;-47
2023/04/19 00:55:00;;;;;;;9.63;5.20;;;7.40;69.80;;;;;;5083992;28;20071;-47
2023/04/19 00:57:28;;;;;;;8.05;4.93;;;7.40;69.40;;;;;;5058792;28;20032;-47
2023/04/19 00:59:55;;;;;;;8.70;5.03;;;7.40;69.60;;;;;;5087155;28;20035;-46
2023/04/19 01:02:21;;;;;;;7.07;4.25;;;7.30;69.40;;;;;;5070021;28;20457;-48
2023/04/19 01:04:50;;;;;;;8.13;4.68;;;7.30;69.90;;;;;;5076883;28;20040;-48
2023/04/19 01:07:18;;;;;;;6.93;4.80;;;7.20;70.20;;;;;;5058839;28;20050;-49
2023/04/19 01:09:46;;;;;;;6.45;4.75;;;7.20;70.40;;;;;;5083782;28;20024;-47
2023/04/19 01:12:14;;;;;;;7.03;5.28;;;7.20;71.10;;;;;;5079339;28;20044;-47
2023/04/19 01:14:43;;;;;;;12.30;4.70;;;7.20;71.40;;;;;;5061238;28;20162;-47
2023/04/19 01:17:12;;;;;;;9.03;4.63;;;7.20;71.20;;;;;;5058729;28;20121;-47
2023/04/19 01:19:41;;;;;;;7.45;5.93;;;7.10;71.10;;;;;;5058089;28;20043;-51
2023/04/19 01:22:11;;;;;;;10.27;5.30;;;7.10;70.80;;;;;;5078325;28;20105;-48
2023/04/19 01:24:37;;;;;;;7.38;4.78;;;7.10;71.10;;;;;;5058961;28;20047;-47
2023/04/19 01:27:04;;;;;;;8.88;5.65;;;7.10;71.50;;;;;;5058834;28;20103;-49
2023/04/19 01:29:33;;;;;;;10.38;4.72;;;7.00;71.60;;;;;;5078890;28;20095;-46
2023/04/19 01:32:00;;;;;;;7.15;4.30;;;7.00;72.10;;;;;;5076537;28;20043;-48
2023/04/19 01:34:26;;;;;;;6.63;4.60;;;7.00;71.90;;;;;;5094658;28;20470;-49
2023/04/19 01:36:54;;;;;;;9.15;5.35;;;6.90;72.30;;;;;;5078599;28;20024;-47
2023/04/19 01:39:23;;;;;;;8.40;4.90;;;6.90;72.20;;;;;;5090016;28;20074;-50
2023/04/19 01:41:52;;;;;;;7.32;4.72;;;6.90;72.30;;;;;;5071134;28;20438;-49
2023/04/19 01:44:21;;;;;;;6.68;4.65;;;6.90;72.50;;;;;;5075801;28;20086;-46
2023/04/19 01:46:50;;;;;;;8.70;4.43;;;6.90;72.20;;;;;;5076494;28;20028;-46
2023/04/19 01:49:16;;;;;;;7.25;4.93;;;6.90;72.30;;;;;;5075215;28;20446;-46
2023/04/19 01:51:44;;;;;;;7.35;4.60;;;6.80;72.30;;;;;;5075366;28;20040;-48
2023/04/19 01:54:12;;;;;;;6.93;4.40;;;6.90;71.90;;;;;;5075235;28;20059;-46
2023/04/19 01:56:39;;;;;;;6.80;4.15;;;6.90;71.90;;;;;;5075116;28;20457;-46
2023/04/19 01:59:06;;;;;;;10.02;4.63;;;6.90;71.80;;;;;;5074493;28;20024;-47
2023/04/19 02:01:35;;;;;;;7.18;4.72;;;6.80;72.00;;;;;;5089263;28;20031;-48
2023/04/19 02:04:02;;;;;;;6.35;4.53;;;6.90;72.50;;;;;;5095394;28;20099;-47
2023/04/19 02:06:30;;;;;;;6.55;4.63;;;6.90;72.90;;;;;;5078439;28;20032;-45
2023/04/19 02:08:58;;;;;;;8.40;5.10;;;6.90;72.90;;;;;;5077492;28;20067;-45
2023/04/19 02:11:24;;;;;;;9.10;5.18;;;6.90;72.90;;;;;;5067031;28;20038;-48
2023/04/19 02:13:51;;;;;;;9.65;4.13;;;6.90;73.10;;;;;;5075047;28;20040;-46
2023/04/19 02:16:18;;;;;;;10.70;3.70;;;6.90;72.20;;;;;;5085108;28;20385;-47
2023/04/19 02:18:45;;;;;;;10.10;4.35;;;7.00;71.50;;;;;;5076016;28;20480;-47
2023/04/19 02:21:13;;;;;;;7.20;4.82;;;7.00;71.20;;;;;;5095293;28;20505;-46
2023/04/19 02:23:40;;;;;;;6.60;3.95;;;7.00;71.20;;;;;;5093030;28;20388;-46
2023/04/19 02:26:06;;;;;;;7.55;3.83;;;6.90;71.80;;;;;;5095202;28;20082;-45
2023/04/19 02:28:34;;;;;;;8.15;4.43;;;6.90;71.70;;;;;;5095037;28;20028;-49
2023/04/19 02:31:04;;;;;;;10.68;4.57;;;7.00;71.10;;;;;;5092984;28;20525;-45
2023/04/19 02:33:30;;;;;;;8.50;3.70;;;7.00;71.40;;;;;;5057171;28;20032;-48
2023/04/19 02:35:58;;;;;;;6.32;3.15;;;6.90;71.90;;;;;;5075148;28;20025;-47
2023/04/19 02:38:25;;;;;;;12.02;3.67;;;6.90;71.80;;;;;;5057079;28;20032;-46
2023/04/19 02:40:51;;;;;;;5.22;2.97;;;7.00;71.40;;;;;;5079027;28;20028;-48
2023/04/19 02:43:18;;;;;;;8.65;4.00;;;6.90;71.90;;;;;;5094833;28;20098;-46
2023/04/19 02:45:44;;;;;;;5.72;3.58;;;6.90;72.10;;;;;;5092789;28;20512;-46
2023/04/19 02:48:11;;;;;;;7.75;3.47;;;6.90;71.90;;;;;;5081519;28;20041;-46
2023/04/19 02:50:38;;;;;;;9.55;3.30;;;6.90;72.10;;;;;;5074316;28;20557;-45
2023/04/19 02:53:04;;;;;;;6.05;3.67;;;6.90;71.80;;;;;;5074486;28;20024;-46
2023/04/19 02:55:31;;;;;;;7.53;3.63;;;6.90;72.10;;;;;;5074388;28;20039;-48
2023/04/19 02:57:56;;;;;;;6.00;3.72;;;6.90;71.80;;;;;;5045394;28;20041;-48
2023/04/19 03:00:22;;;;;;;8.73;4.05;;;6.90;71.80;;;;;;5056522;28;20170;-48
2023/04/19 03:02:50;;;;;;;7.28;3.10;;;6.80;72.20;;;;;;5067709;28;20032;-50
2023/04/19 03:05:18;;;;;;;4.68;3.00;;;6.80;72.40;;;;;;5076859;28;20032;-49
2023/04/19 03:07:45;;;;;;;7.15;3.42;;;6.80;72.50;;;;;;5073809;28;20036;-47
2023/04/19 03:10:11;;;;;;;7.70;3.80;;;6.70;72.60;;;;;;5055847;28;20450;-48
2023/04/19 03:12:38;;;;;;;7.22;3.85;;;6.70;72.70;;;;;;5073288;28;20044;-48
2023/04/19 03:15:09;;;;;;;9.05;4.57;;;6.70;72.70;;;;;;5068289;28;20050;-50
2023/04/19 03:17:36;;;;;;;9.38;3.55;;;6.60;72.70;;;;;;5083391;28;20131;-48
2023/04/19 03:20:08;;;;;;;5.88;3.50;;;6.60;72.60;;;;;;5093520;28;20102;-45
2023/04/19 03:22:36;;;;;;;5.10;3.13;;;6.60;72.80;;;;;;5073725;28;20129;-46
2023/04/19 03:25:04;;;;;;;7.13;3.13;;;6.60;73.00;;;;;;5056631;28;20339;-47
2023/04/19 03:27:34;;;;;;;7.30;4.35;;;6.50;73.10;;;;;;5063599;28;20024;-49
2023/04/19 03:30:01;;;;;;;7.15;3.65;;;6.40;73.30;;;;;;5064296;28;20029;-47
2023/04/19 03:32:26;;;;;;;6.43;3.40;;;6.40;73.40;;;;;;5058631;28;20036;-46
2023/04/19 03:34:53;;;;;;;7.35;3.85;;;6.50;73.40;;;;;;5073449;28;20040;-45
2023/04/19 03:37:20;;;;;;;5.65;3.58;;;6.40;73.50;;;;;;5072972;28;20035;-45
2023/04/19 03:39:47;;;;;;;7.43;3.35;;;6.50;73.50;;;;;;5090009;28;20330;-45
2023/04/19 03:42:14;;;;;;;9.23;4.78;;;6.50;73.50;;;;;;5074324;28;20540;-45
2023/04/19 03:44:41;;;;;;;9.07;3.60;;;6.40;73.70;;;;;;5088764;28;20024;-48
2023/04/19 03:47:10;;;;;;;7.28;5.20;;;6.40;73.40;;;;;;5093391;28;20032;-45
2023/04/19 03:49:44;;;;;;;7.68;3.60;;;6.40;73.00;;;;;;5078471;28;20525;-45
2023/04/19 03:52:11;;;;;;;5.45;3.83;;;6.40;72.90;;;;;;5073078;28;20040;-47
2023/04/19 03:54:38;;;;;;;6.40;3.92;;;6.40;73.00;;;;;;5045188;28;20128;-46
2023/04/19 03:57:04;;;;;;;6.13;3.08;;;6.40;73.20;;;;;;5093739;28;20357;-47
2023/04/19 03:59:34;;;;;;;7.60;3.30;;;6.40;73.10;;;;;;5083724;28;20099;-49
2023/04/19 04:02:00;;;;;;;6.60;3.17;;;6.40;73.40;;;;;;5067980;28;20571;-46
2023/04/19 04:04:28;;;;;;;6.22;3.53;;;6.40;73.60;;;;;;5093598;28;20063;-47
2023/04/19 04:06:55;;;;;;;4.47;2.80;;;6.30;73.30;;;;;;5065806;28;20017;-47
2023/04/19 04:09:23;;;;;;;5.47;3.88;;;6.40;73.20;;;;;;5090802;28;20049;-46
2023/04/19 04:11:52;;;;;;;6.55;3.30;;;6.30;73.60;;;;;;5093186;28;20099;-50
2023/04/19 04:14:21;;;;;;;4.55;3.00;;;6.40;73.40;;;;;;5091296;28;20054;-49
2023/04/19 04:16:48;;;;;;;6.00;2.70;;;6.40;73.80;;;;;;5073897;28;20038;-47
2023/04/19 04:19:17;;;;;;;4.75;2.60;;;6.40;73.90;;;;;;5084797;28;20021;-47
2023/04/19 04:21:44;;;;;;;5.63;3.50;;;6.40;74.20;;;;;;5055241;28;20143;-46
2023/04/19 04:24:12;;;;;;;5.18;2.60;;;6.50;72.80;;;;;;5054315;28;20024;-45
2023/04/19 04:26:38;;;;;;;6.72;3.05;;;6.40;72.70;;;;;;5055458;28;20028;-45
2023/04/19 04:29:04;;;;;;;6.53;3.05;;;6.50;72.40;;;;;;5067797;28;20131;-47
2023/04/19 04:31:30;;;;;;;8.80;2.80;;;6.60;72.50;;;;;;5064324;28;20086;-47
2023/04/19 04:33:57;;;;;;;5.90;3.45;;;6.60;72.80;;;;;;5072846;28;20030;-50
2023/04/19 04:36:25;;;;;;;7.43;2.78;;;6.60;73.20;;;;;;5071180;28;20444;-46
2023/04/19 04:38:55;;;;;;;7.43;2.65;;;6.60;73.80;;;;;;5073361;28;20053;-48
2023/04/19 04:41:26;;;;;;;6.20;3.17;;;6.60;74.50;;;;;;5072212;28;20040;-46
2023/04/19 04:43:57;;;;;;;5.63;3.17;;;6.60;74.80;;;;;;5072420;28;20033;-44
2023/04/19 04:46:25;;;;;;;6.68;2.97;;;6.70;73.90;;;;;;5076753;28;20496;-49
2023/04/19 04:48:52;;;;;;;6.50;3.17;;;6.70;73.50;;;;;;5072807;28;20387;-47
2023/04/19 04:51:19;;;;;;;4.05;2.17;;;6.80;72.80;;;;;;5054957;28;20024;-47
2023/04/19 04:53:48;;;;;;;9.10;2.92;;;6.80;73.00;;;;;;5072602;28;20124;-48
2023/04/19 04:56:20;;;;;;;6.88;2.78;;;6.80;72.70;;;;;;5072646;28;20033;-49
2023/04/19 04:58:49;;;;;;;5.82;2.78;;;6.80;72.20;;;;;;5054913;28;20055;-47
2023/04/19 05:01:18;;;;;;;3.88;2.20;;;6.90;71.10;;;;;;5084128;28;20032;-46
2023/04/19 05:03:44;;;;;;;4.85;2.13;;;6.90;71.00;;;;;;5093004;28;20348;-46
2023/04/19 05:06:10;;;;;;;6.18;2.65;;;6.90;71.20;;;;;;5073266;28;20103;-45
2023/04/19 05:08:38;;;;;;;5.00;2.58;;;6.90;71.20;;;;;;5072613;28;20124;-46
2023/04/19 05:11:08;;;;;;;8.30;2.65;;;6.90;71.00;;;;;;5077058;28;20460;-48
2023/04/19 05:13:36;;;;;;;6.85;2.60;;;7.00;71.10;;;;;;5072670;28;20039;-46
2023/04/19 05:16:03;;;;;;;4.72;2.42;;;7.00;70.70;;;;;;5079889;28;20071;-50
2023/04/19 05:18:30;;;;;;;5.82;2.38;;;7.00;70.80;;;;;;5092671;28;20024;-47
2023/04/19 05:20:58;;;;;;;7.25;2.90;;;7.20;70.70;;;;;;5091449;28;20032;-46
2023/04/19 05:23:26;;;;;;;4.25;2.55;;;7.20;70.80;;;;;;5087463;28;20341;-46
2023/04/19 05:25:54;;;;;;;4.15;2.67;;;7.30;71.30;;;;;;5091331;28;20031;-45
2023/04/19 05:28:21;;;;;;;7.60;2.80;;;7.20;70.90;;;;;;5091756;28;20020;-47
2023/04/19 05:30:48;;;;;;;5.97;2.53;;;7.30;70.90;;;;;;5083087;28;20024;-48
2023/04/19 05:33:14;;;;;;;5.75;2.70;;;7.40;70.80;;;;;;5082370;28;20115;-43
2023/04/19 05:35:41;;;;;;;4.15;2.53;;;7.40;71.00;;;;;;5077058;28;20035;-47
2023/04/19 05:38:08;;;;;;;6.22;2.70;;;7.50;71.20;;;;;;5095757;28;20034;-44
2023/04/19 05:40:34;;;;;;;5.32;2.75;;;7.60;71.20;;;;;;5087509;28;20453;-47
2023/04/19 05:43:03;;;;;;;4.28;2.72;;;7.60;71.30;;;;;;5078090;28;20763;-43
2023/04/19 05:45:30;;;;;;;5.75;2.50;;;7.60;71.80;;;;;;5072895;28;20338;-45
2023/04/19 05:48:00;;;;;;;5.43;2.38;;;7.50;70.60;;;;;;5057881;28;20063;-44
2023/04/19 05:50:28;;;;;;;5.07;2.55;;;7.60;70.90;;;;;;5075167;28;20036;-45
2023/04/19 05:52:54;;;;;;;5.05;2.53;;;7.70;70.10;;;;;;5075353;28;20024;-48
2023/04/19 05:55:22;;;;;;;3.67;2.53;;;7.90;69.80;;;;;;5083902;28;20361;-46
2023/04/19 05:57:50;;;;;;;7.15;2.63;;;8.10;69.70;;;;;;5081731;28;20057;-46
2023/04/19 06:00:19;;;;;;;6.50;2.72;;;8.20;69.60;;;;;;5093958;28;20399;-48
2023/04/19 06:02:46;;;;;;;4.28;2.38;;;8.20;69.40;;;;;;5094005;28;20032;-46
2023/04/19 06:05:12;;;;;;;4.72;2.47;;;8.20;69.80;;;;;;5075646;28;20031;-45
2023/04/19 06:07:39;;;;;;;4.35;2.00;;;8.30;70.70;;;;;;5085408;28;20029;-46
2023/04/19 06:10:09;;;;;;;4.93;2.85;;;8.40;70.80;;;;;;5095103;28;20039;-45
2023/04/19 06:12:36;;;;;;;4.90;2.65;;;8.50;70.80;;;;;;5067564;28;20055;-45
2023/04/19 06:15:05;;;;;;;8.70;2.90;;;8.60;71.30;;;;;;5075682;28;20047;-45
2023/04/19 06:17:31;;;;;;;5.22;3.33;;;8.60;71.80;;;;;;5056935;28;20136;-45
2023/04/19 06:19:59;;;;;;;7.97;3.20;;;8.60;71.70;;;;;;5057365;28;20198;-45
2023/04/19 06:22:26;;;;;;;4.25;2.70;;;8.60;71.80;;;;;;5056907;28;20366;-46
2023/04/19 06:24:54;;;;;;;6.00;2.92;;;8.80;72.20;;;;;;5075015;28;20081;-45
2023/04/19 06:27:22;;;;;;;8.43;3.38;;;8.90;73.00;;;;;;5090323;28;20411;-45
2023/04/19 06:29:50;;;;;;;6.57;3.28;;;8.80;71.40;;;;;;5093313;28;20022;-45
2023/04/19 06:32:17;;;;;;;6.75;3.13;;;8.90;73.10;;;;;;5076453;28;20150;-44
2023/04/19 06:34:44;;;;;;;6.38;3.08;;;8.90;72.00;;;;;;5089570;28;20063;-45
2023/04/19 06:37:10;;;;;;;3.85;2.65;;;8.80;72.50;;;;;;5074545;28;20039;-47
2023/04/19 06:39:37;;;;;;;6.55;2.75;;;8.90;71.90;;;;;;5074596;28;20485;-46
2023/04/19 06:42:05;;;;;;;6.50;2.95;;;8.90;70.70;;;;;;5057128;28;20028;-45
2023/04/19 06:44:33;;;;;;;6.18;2.80;;;8.90;70.20;;;;;;5079372;28;20035;-45
2023/04/19 06:47:00;;;;;;;8.23;2.65;;;8.90;70.50;;;;;;5090873;28;20028;-48
2023/04/19 06:49:27;;;;;;;8.90;2.35;;;8.90;72.30;;;;;;5093416;28;20028;-48
2023/04/19 06:51:53;;;;;;;5.32;2.30;;;8.90;70.50;;;;;;5072147;28;20025;-46
2023/04/19 06:54:20;;;;;;;4.80;2.20;;;8.90;70.40;;;;;;5074454;28;20360;-46
2023/04/19 06:56:48;;;;;;;5.82;2.80;;;9.10;71.60;;;;;;5056814;28;20442;-45
2023/04/19 06:59:21;;;;;;;6.63;2.60;;;9.00;70.00;;;;;;5058445;28;20099;-46
2023/04/19 07:01:50;;;;;;;5.93;2.72;;;9.20;70.70;;;;;;5078250;28;20039;-47
2023/04/19 07:04:18;;;;;;;5.60;2.63;;;9.20;70.30;;;;;;5074085;28;20066;-47
2023/04/19 07:06:49;;;;;;;6.10;2.65;;;9.40;71.60;;;;;;5074145;28;20036;-44
2023/04/19 07:09:16;;;;;;;6.72;4.00;;;9.40;69.70;;;;;;5074303;28;20071;-47
2023/04/19 07:11:42;;;;;;;7.07;2.97;;;9.30;70.30;;;;;;5043288;28;20028;-46
2023/04/19 07:14:09;;;;;;;7.03;2.75;;;9.40;70.40;;;;;;5073638;28;20106;-44
2023/04/19 07:16:34;;;;;;;12.20;3.20;;;9.40;71.20;;;;;;5083014;28;20417;-45
2023/04/19 07:19:03;;;;;;;4.60;2.28;;;9.50;71.20;;;;;;5073817;28;20047;-47
2023/04/19 07:21:33;;;;;;;5.55;2.92;;;9.50;69.90;;;;;;5073795;28;20020;-45
2023/04/19 07:24:00;;;;;;;5.45;2.83;;;9.50;69.80;;;;;;5073831;28;20533;-44
2023/04/19 07:26:26;;;;;;;7.78;2.92;;;9.60;69.30;;;;;;5063600;28;20079;-45
2023/04/19 07:28:54;;;;;;;13.90;2.95;;;9.50;68.30;;;;;;5093257;28;20408;-47
2023/04/19 07:31:23;;;;;;;5.75;2.30;;;9.70;69.60;;;;;;5084939;28;20081;-48
2023/04/19 07:33:52;;;;;;;6.63;2.47;;;10.00;69.50;;;;;;5094025;28;20043;-46
2023/04/19 07:36:21;;;;;;;6.60;2.20;;;10.20;67.30;;;;;;5053002;28;20465;-47
2023/04/19 07:38:46;;;;;;;4.68;2.17;;;10.40;67.80;;;;;;5056172;28;20500;-47
2023/04/19 07:41:14;;;;;;;3.90;1.95;;;10.60;67.00;;;;;;5068699;28;20028;-47
2023/04/19 07:43:42;;;;;;;4.28;2.25;;;10.80;66.60;;;;;;5083613;28;20044;-46
2023/04/19 07:46:15;;;;;;;4.05;1.65;;;11.10;65.50;;;;;;5074011;28;20056;-47
2023/04/19 07:48:42;;;;;;;6.72;2.03;;;11.40;63.70;;;;;;5054501;28;20362;-49
2023/04/19 07:51:16;;;;;;;4.80;1.80;;;11.60;62.40;;;;;;5075328;28;20024;-45
2023/04/19 07:53:43;;;;;;;4.30;1.42;;;11.70;61.80;;;;;;5058159;28;20024;-48
2023/04/19 07:56:21;;;;;;;5.93;1.60;;;11.90;61.00;;;;;;5076077;28;20373;-48
2023/04/19 07:58:48;;;;;;;3.10;1.60;;;12.20;60.20;;;;;;5067941;28;20040;-48
2023/04/19 08:01:14;;;;;;;5.63;2.53;;;12.40;59.30;;;;;;5055799;28;20572;-48
2023/04/19 08:03:42;;;;;;;4.55;1.90;;;12.40;58.80;;;;;;5073007;28;20031;-48
2023/04/19 08:06:13;;;;;;;4.20;1.50;;;12.60;59.00;;;;;;5089315;28;20027;-45
2023/04/19 08:08:41;;;;;;;3.47;1.50;;;12.80;57.30;;;;;;5093214;28;20062;-46
2023/04/19 08:11:08;;;;;;;4.75;1.85;;;12.70;55.90;;;;;;5059433;28;20579;-47
2023/04/19 08:13:34;;;;;;;4.35;2.13;;;12.80;56.60;;;;;;5077010;28;20040;-45
2023/04/19 08:16:02;;;;;;;6.80;1.77;;;12.90;56.10;;;;;;5072582;28;20101;-48
2023/04/19 08:18:30;;;;;;;5.03;1.67;;;13.00;56.70;;;;;;5073851;28;20229;-45
2023/04/19 08:20:58;;;;;;;5.78;2.00;;;13.40;55.20;;;;;;5060254;28;20051;-47
2023/04/19 08:23:25;;;;;;;9.13;1.52;;;13.50;54.50;;;;;;5073258;28;20037;-45
2023/04/19 08:25:55;;;;;;;4.60;1.52;;;13.60;55.10;;;;;;5055466;28;20029;-45
2023/04/19 08:28:23;;;;;;;4.28;1.17;;;13.70;52.80;;;;;;5061610;28;20429;-45
2023/04/19 08:30:56;;;;;;;5.00;1.95;;;13.60;53.80;;;;;;5093046;28;20100;-47
2023/04/19 08:33:23;;;;;;;6.10;2.15;;;13.70;54.70;;;;;;5059535;28;20068;-45
2023/04/19 08:35:48;;;;;;;2.70;1.40;;;13.90;52.70;;;;;;5092927;28;20059;-49
2023/04/19 08:38:16;;;;;;;3.63;1.63;;;13.80;52.90;;;;;;5075556;28;20066;-45
2023/04/19 08:40:55;;;;;;;3.65;1.77;;;14.20;53.80;;;;;;5072806;28;20058;-45
2023/04/19 08:43:34;;;;;;;4.53;1.45;;;14.10;52.60;;;;;;5059822;28;20024;-46
2023/04/19 08:46:01;;;;;;;5.00;1.70;;;14.40;51.60;;;;;;5055021;28;20107;-46
2023/04/19 08:48:33;;;;;;;2.72;1.52;;;14.50;52.20;;;;;;5054431;28;20031;-46
2023/04/19 08:51:03;;;;;;;8.40;1.63;;;14.50;50.70;;;;;;5072471;28;20025;-45
2023/04/19 08:53:36;;;;;;;4.28;1.73;;;14.30;51.00;;;;;;5056742;28;20036;-46
2023/04/19 08:56:02;;;;;;;4.05;1.17;;;14.20;51.20;;;;;;5055799;28;20119;-46
2023/04/19 08:58:31;;;;;;;4.45;1.65;;;14.40;51.00;;;;;;5058598;28;20032;-46
2023/04/19 09:00:59;;;;;;;4.53;2.03;;;14.30;53.70;;;;;;5083527;28;20467;-46
2023/04/19 09:03:25;;;;;;;5.38;2.10;;;14.40;51.30;;;;;;5092683;28;20032;-46
2023/04/19 09:05:53;;;;;;;5.05;2.17;;;14.40;51.20;;;;;;5064087;28;20040;-46
2023/04/19 09:08:30;;;;;;;4.93;1.75;;;14.50;50.50;;;;;;5073212;28;20020;-48
2023/04/19 09:11:15;;;;;;;7.35;2.20;;;14.40;49.50;;;;;;5064481;28;20028;-45
2023/04/19 09:13:43;;;;;;;4.70;2.13;;;14.20;50.70;;;;;;5080968;28;20032;-45
2023/04/19 09:16:24;;;;;;;7.50;2.45;;;14.10;50.80;;;;;;5093315;28;20047;-49
2023/04/19 09:18:56;;;;;;;5.28;2.10;;;14.30;51.30;;;;;;5096732;28;20413;-46
2023/04/19 09:21:32;;;;;;;5.28;2.17;;;14.20;51.30;;;;;;5056569;28;20040;-45
2023/04/19 09:24:00;;;;;;;5.60;2.30;;;14.00;54.10;;;;;;5076136;28;20024;-46
2023/04/19 09:26:31;;;;;;;5.22;2.83;;;14.20;55.10;;;;;;5094124;28;20028;-46
2023/04/19 09:29:04;;;;;;;6.38;2.67;;;14.30;54.60;;;;;;5072450;28;20043;-46
2023/04/19 09:31:37;;;;;;;6.05;2.70;;;14.40;54.20;;;;;;5079202;28;20021;-46
2023/04/19 09:34:21;;;;;;;5.90;2.67;;;14.40;54.20;;;;;;5077784;28;20067;-46
2023/04/19 09:36:48;;;;;;;5.70;3.97;;;14.30;54.10;;;;;;5094125;28;20111;-49
2023/04/19 09:39:36;;;;;;;6.95;3.70;;;14.30;56.20;;;;;;5092781;28;20619;-46
2023/04/19 09:42:03;;;;;;;6.10;2.83;;;14.40;56.80;;;;;;5057801;28;20032;-48
2023/04/19 09:44:32;;;;;;;6.22;2.75;;;14.40;55.00;;;;;;5081276;28;20024;-47
2023/04/19 09:47:00;;;;;;;5.67;3.43;;;14.20;54.30;;;;;;5081103;28;20025;-48
2023/04/19 09:49:28;;;;;;;13.35;3.63;;;14.20;56.20;;;;;;5075703;28;20350;-47
2023/04/19 09:51:57;;;;;;;13.02;3.65;;;14.10;56.90;;;;;;5075736;28;20449;-46
2023/04/19 09:54:26;;;;;;;8.13;3.17;;;14.10;56.80;;;;;;5057785;28;20141;-46
2023/04/19 09:56:56;;;;;;;5.65;3.35;;;14.30;57.20;;;;;;5058487;28;20472;-46
2023/04/19 09:59:23;;;;;;;8.38;3.60;;;14.40;56.00;;;;;;5061796;28;20035;-46
2023/04/19 10:01:54;;;;;;;8.32;3.85;;;14.40;56.50;;;;;;5077602;28;20122;-46
2023/04/19 10:04:22;;;;;;;7.15;3.25;;;14.20;55.70;;;;;;5074645;28;20024;-46
2023/04/19 10:07:01;;;;;;;13.77;3.83;;;14.20;56.60;;;;;;5057704;28;20032;-46
2023/04/19 10:09:27;;;;;;;5.30;3.30;;;14.20;56.10;;;;;;5079880;28;20161;-46
2023/04/19 10:11:58;;;;;;;8.32;3.83;;;14.20;57.20;;;;;;5090155;28;20016;-48
2023/04/19 10:14:32;;;;;;;9.25;3.47;;;14.40;56.40;;;;;;5077183;28;20028;-47
2023/04/19 10:17:03;;;;;;;9.20;3.50;;;14.40;57.70;;;;;;5061535;28;20039;-47
2023/04/19 10:19:34;;;;;;;8.73;3.30;;;14.30;57.10;;;;;;5077776;28;20078;-49
2023/04/19 10:22:04;;;;;;;11.20;3.00;;;14.50;58.90;;;;;;5078015;28;20081;-46
2023/04/19 10:24:32;;;;;;;7.82;2.78;;;14.60;57.50;;;;;;5074943;28;20438;-48
2023/04/19 10:27:12;;;;;;;15.93;3.15;;;14.60;57.50;;;;;;5074990;28;20032;-48
2023/04/19 10:30:02;;;;;;;5.50;2.22;;;14.90;56.00;;;;;;5054914;28;20025;-47
2023/04/19 10:32:43;;;;;;;5.13;1.73;;;14.90;55.60;;;;;;5074462;28;20032;-47
2023/04/19 10:35:17;;;;;;;7.53;2.35;;;14.90;56.30;;;;;;5040703;28;20056;-46
2023/04/19 10:38:03;;;;;;;6.72;1.73;;;15.00;57.40;;;;;;5056959;28;20036;-46
2023/04/19 10:41:13;;;;;;;8.52;1.65;;;14.90;53.10;;;;;;5058660;28;20086;-46
2023/04/19 10:43:44;;;;;;;5.60;1.45;;;14.90;50.40;;;;;;5074828;28;20032;-47
2023/04/19 10:46:24;;;;;;;3.97;1.27;;;14.90;51.00;;;;;;5047575;28;20025;-50
2023/04/19 10:48:56;;;;;;;8.02;1.40;;;14.90;49.40;;;;;;5074536;28;20516;-48
2023/04/19 10:51:49;;;;;;;4.07;1.30;;;15.20;51.60;;;;;;5075850;28;20099;-46
2023/04/19 10:54:37;;;;;;;3.10;1.17;;;15.00;47.90;;;;;;5075480;28;20040;-47
2023/04/19 10:57:06;;;;;;;10.98;1.95;;;15.00;47.30;;;;;;5068651;28;20027;-50
2023/04/19 10:59:39;;;;;;;5.45;1.83;;;14.90;50.10;;;;;;5089101;28;20025;-50
2023/04/19 11:02:27;;;;;;;6.90;1.92;;;15.00;51.50;;;;;;5079989;28;20025;-47
2023/04/19 11:04:57;;;;;;;5.35;1.58;;;15.00;52.20;;;;;;5074441;28;20039;-49
2023/04/19 11:07:25;;;;;;;4.82;1.45;;;15.10;53.00;;;;;;5073793;28;20018;-52
2023/04/19 11:09:53;;;;;;;6.13;2.00;;;15.30;51.40;;;;;;5074104;28;20102;-51
2023/04/19 11:12:20;;;;;;;5.13;1.70;;;15.30;51.50;;;;;;5074016;28;20111;-48
2023/04/19 11:14:59;;;;;;;6.47;1.20;;;15.30;50.80;;;;;;5078669;28;20067;-46
2023/04/19 11:17:48;;;;;;;4.97;1.13;;;15.30;51.00;;;;;;5092435;28;20032;-53
2023/04/19 11:20:15;;;;;;;6.80;1.60;;;15.10;52.40;;;;;;5075795;28;20048;-47
2023/04/19 11:22:46;;;;;;;6.10;1.60;;;15.20;52.60;;;;;;5090245;28;20034;-51
2023/04/19 11:25:20;;;;;;;2.85;1.40;;;15.20;51.10;;;;;;5075745;28;20020;-49
2023/04/19 11:27:54;;;;;;;3.38;1.73;;;15.00;50.00;;;;;;5083132;28;20021;-47
2023/04/19 11:30:28;;;;;;;4.47;1.73;;;15.10;51.20;;;;;;5056503;28;20039;-53
2023/04/19 11:32:55;;;;;;;5.60;1.60;;;15.30;50.70;;;;;;5066787;28;20349;-48
2023/04/19 11:35:30;;;;;;;3.88;1.70;;;15.00;48.60;;;;;;5056274;28;20039;-50
2023/04/19 11:37:58;;;;;;;8.80;1.65;;;15.20;47.70;;;;;;5090108;28;20032;-47
2023/04/19 11:40:29;;;;;;;5.85;1.60;;;15.10;47.00;;;;;;5084884;28;20462;-50
2023/04/19 11:43:02;;;;;;;5.70;1.90;;;15.10;50.70;;;;;;5091128;28;20453;-46
2023/04/19 11:45:49;;;;;;;4.15;1.48;;;15.10;48.10;;;;;;5075347;28;20539;-47
2023/04/19 11:48:16;;;;;;;4.95;1.58;;;15.20;51.40;;;;;;5085054;28;20560;-45
2023/04/19 11:50:45;;;;;;;5.30;1.75;;;15.20;49.30;;;;;;5073176;28;20020;-48
2023/04/19 11:53:15;;;;;;;8.07;1.58;;;15.00;52.50;;;;;;5073360;28;20024;-48
2023/04/19 11:55:59;;;;;;;13.70;2.33;;;15.20;49.80;;;;;;5080872;28;20076;-47
2023/04/19 11:58:44;;;;;;;18.23;3.60;;;15.00;51.10;;;;;;5056777;28;20033;-48
2023/04/19 12:01:20;;;;;;;7.72;1.70;;;15.10;50.20;;;;;;5073359;28;20055;-48
2023/04/19 12:04:05;;;;;;;8.02;2.50;;;15.00;50.00;;;;;;5074217;28;20035;-48
2023/04/19 12:06:31;;;;;;;8.00;1.67;;;15.10;49.10;;;;;;5087397;28;20073;-46
2023/04/19 12:09:06;;;;;;;10.73;2.50;;;15.10;48.60;;;;;;5074155;28;20070;-50
2023/04/19 12:11:51;;;;;;;5.30;1.48;;;15.10;49.30;;;;;;5055339;28;20037;-48
2023/04/19 12:14:21;;;;;;;5.47;1.67;;;15.00;47.20;;;;;;5075325;28;20060;-49
2023/04/19 12:17:25;;;;;;;6.10;1.85;;;14.90;48.90;;;;;;5058195;28;20032;-49
2023/04/19 12:19:55;;;;;;;5.40;2.70;;;14.80;48.20;;;;;;5058036;28;20032;-48
2023/04/19 12:22:25;;;;;;;5.72;1.80;;;14.80;49.10;;;;;;5072837;28;20044;-48
2023/04/19 12:24:53;;;;;;;9.05;1.40;;;14.70;50.30;;;;;;5078048;28;20357;-47
2023/04/19 12:27:20;;;;;;;5.75;1.70;;;14.90;51.20;;;;;;5054090;28;20590;-51
2023/04/19 12:29:46;;;;;;;4.68;1.73;;;15.20;50.50;;;;;;5056783;28;20379;-46
2023/04/19 12:32:14;;;;;;;2.92;1.35;;;15.00;50.30;;;;;;5093075;28;20052;-47
2023/04/19 12:34:41;;;;;;;5.43;1.83;;;15.00;50.70;;;;;;5087387;28;20029;-49
2023/04/19 12:37:08;;;;;;;6.13;1.60;;;14.90;49.50;;;;;;5073173;28;20025;-46
2023/04/19 12:39:35;;;;;;;5.45;1.92;;;14.80;51.30;;;;;;5079486;28;20028;-51
2023/04/19 12:42:01;;;;;;;6.53;1.73;;;14.70;50.50;;;;;;5072891;28;20363;-48
2023/04/19 12:44:28;;;;;;;6.57;1.55;;;14.60;49.10;;;;;;5081948;28;20099;-46
2023/04/19 12:46:56;;;;;;;8.07;1.73;;;14.70;51.20;;;;;;5097167;28;20016;-47
2023/04/19 12:49:24;;;;;;;6.60;1.80;;;14.60;49.80;;;;;;5097119;28;20013;-46
2023/04/19 12:51:51;;;;;;;5.13;2.00;;;14.50;49.10;;;;;;5084985;28;20032;-46
2023/04/19 12:54:16;;;;;;;4.63;1.80;;;14.60;50.90;;;;;;5076843;28;20446;-49
2023/04/19 12:56:44;;;;;;;5.53;1.67;;;14.50;48.60;;;;;;5076628;28;20032;-47
2023/04/19 12:59:15;;;;;;;9.50;1.38;;;14.50;50.20;;;;;;5081064;28;20391;-48
2023/04/19 13:01:40;;;;;;;9.85;1.65;;;14.50;52.50;;;;;;5084825;28;20055;-48
2023/04/19 13:04:10;;;;;;;5.85;1.50;;;14.50;51.70;;;;;;5096785;28;20070;-49